createdAt,value
2022-10-03T00:07:12.188Z,985.9
2022-10-03T00:14:23.912Z,986.02
2022-10-03T00:21:42.853Z,986.19
2022-10-03T00:28:52.179Z,986.27
2022-10-03T00:36:05.472Z,986.42
2022-10-03T00:43:21.208Z,986.5
2022-10-03T00:50:24.990Z,986.57
2022-10-03T00:57:21.225Z,986.6
2022-10-03T01:04:43.459Z,986.65
2022-10-03T01:11:45.172Z,986.59
2022-10-03T01:18:59.562Z,986.56
2022-10-03T01:26:10.741Z,986.55
2022-10-03T01:33:31.815Z,986.51
2022-10-03T01:41:03.075Z,986.47
2022-10-03T01:48:06.811Z,986.44
2022-10-03T01:55:36.357Z,986.47
2022-10-03T02:02:45.695Z,986.41
2022-10-03T02:10:01.618Z,986.4
2022-10-03T02:17:08.638Z,986.25
2022-10-03T02:24:12.142Z,986.29
2022-10-03T02:31:23.103Z,986.19
2022-10-03T02:38:48.154Z,986.21
2022-10-03T02:45:46.003Z,986.36
2022-10-03T02:52:49.236Z,986.35
2022-10-03T03:00:09.140Z,986.36
2022-10-03T03:07:06.624Z,986.54
2022-10-03T03:14:17.904Z,986.56
2022-10-03T03:21:33.377Z,986.55
2022-10-03T03:28:32.027Z,986.61
2022-10-03T03:35:45.863Z,986.66
2022-10-03T03:42:40.673Z,986.71
2022-10-03T03:49:37.101Z,986.76
2022-10-03T03:56:53.533Z,986.7
2022-10-03T04:04:08.592Z,986.76
2022-10-03T04:11:29.905Z,986.76
2022-10-03T04:18:35.356Z,986.74
2022-10-03T04:25:25.641Z,986.79
2022-10-03T04:32:25.465Z,986.9
2022-10-03T04:39:29.781Z,986.96
2022-10-03T04:46:48.914Z,987.02
2022-10-03T04:54:02.375Z,987.07
2022-10-03T05:01:11.481Z,987.01
2022-10-03T05:08:20.158Z,987.03
2022-10-03T05:15:36.631Z,987.1
2022-10-03T05:22:52.377Z,987.17
2022-10-03T05:30:15.290Z,987.28
2022-10-03T05:37:33.227Z,987.4
2022-10-03T05:44:49.717Z,987.52
2022-10-03T05:52:03.822Z,987.53
2022-10-03T05:59:05.766Z,987.59
2022-10-03T06:05:58.041Z,987.57
2022-10-03T06:13:04.706Z,987.66
2022-10-03T06:20:01.601Z,987.73
2022-10-03T06:27:11.403Z,987.78
2022-10-03T06:34:03.195Z,987.76
2022-10-03T06:40:53.835Z,987.75
2022-10-03T06:48:04.802Z,987.81
2022-10-03T06:55:09.762Z,987.78
2022-10-03T07:02:17.827Z,987.8
2022-10-03T07:09:23.674Z,987.76
2022-10-03T07:16:29.179Z,987.82
2022-10-03T07:23:39.003Z,987.81
2022-10-03T07:30:44.496Z,987.81
2022-10-03T07:37:55.421Z,987.86
2022-10-03T07:45:13.439Z,987.87
2022-10-03T07:52:13.464Z,987.97
2022-10-03T07:59:18.460Z,988
2022-10-03T08:06:31.396Z,988.12
2022-10-03T08:13:50.818Z,988.13
2022-10-03T08:20:46.793Z,988.19
2022-10-03T08:28:03.039Z,988.14
2022-10-03T08:35:05.811Z,988.18
2022-10-03T08:41:57.018Z,988.13
2022-10-03T08:49:09.867Z,988.06
2022-10-03T08:56:14.462Z,988.1
2022-10-03T09:03:35.142Z,988.08
2022-10-03T09:10:36.572Z,988.11
2022-10-03T09:17:35.238Z,988.18
2022-10-03T09:24:44.479Z,988.16
2022-10-03T09:31:43.295Z,988.23
2022-10-03T09:38:52.533Z,988.22
2022-10-03T09:46:02.568Z,988.14
2022-10-03T09:53:25.012Z,988.05
2022-10-03T10:00:35.176Z,988.08
2022-10-03T10:07:40.289Z,988.04
2022-10-03T10:14:49.818Z,988.01
2022-10-03T10:21:54.874Z,987.92
2022-10-03T10:28:56.199Z,987.94
2022-10-03T10:36:04.959Z,987.98
2022-10-03T10:43:16.609Z,987.9
2022-10-03T10:50:19.486Z,987.96
2022-10-03T10:57:27.793Z,987.92
2022-10-03T11:04:45.306Z,987.89
2022-10-03T11:11:56.378Z,987.8
2022-10-03T11:19:15.131Z,987.85
2022-10-03T11:26:31.043Z,987.8
2022-10-03T11:33:42.625Z,987.75
2022-10-03T11:40:45.158Z,987.65
2022-10-03T11:47:55.561Z,987.66
2022-10-03T11:55:16.670Z,987.66
2022-10-03T12:02:17.223Z,987.67
2022-10-03T12:09:30.933Z,987.57
2022-10-03T12:16:51.374Z,987.51
2022-10-03T12:24:11.123Z,987.42
2022-10-03T12:31:23.867Z,987.33
2022-10-03T12:38:51.125Z,987.26
2022-10-03T12:45:49.197Z,987.28
2022-10-03T12:53:00.016Z,987.29
2022-10-03T13:00:08.705Z,987.3
2022-10-03T13:07:15.084Z,987.21
2022-10-03T13:14:35.845Z,987.15
2022-10-03T13:22:00.836Z,987.11
2022-10-03T13:29:13.529Z,987.15
2022-10-03T13:36:18.970Z,987.16
2022-10-03T13:43:16.456Z,987.15
2022-10-03T13:50:22.605Z,987.14
2022-10-03T13:57:34.628Z,987.1
2022-10-03T14:04:56.288Z,987.05
2022-10-03T14:12:43.822Z,986.95
2022-10-03T14:19:30.616Z,986.93
2022-10-03T14:26:49.175Z,986.93
2022-10-03T14:33:56.561Z,986.99
2022-10-03T14:41:11.107Z,986.9
2022-10-03T14:48:34.790Z,986.89
2022-10-03T14:55:41.725Z,986.87
2022-10-03T15:02:52.621Z,986.72
2022-10-03T15:09:59.938Z,986.73
2022-10-03T15:16:55.898Z,986.8
2022-10-03T15:24:08.298Z,986.78
2022-10-03T15:31:17.972Z,986.7
2022-10-03T15:38:27.005Z,986.67
2022-10-03T15:45:31.359Z,986.6
2022-10-03T15:52:32.241Z,986.62
2022-10-03T15:59:46.298Z,986.54
2022-10-03T16:06:56.095Z,986.51
2022-10-03T16:14:04.329Z,986.45
2022-10-03T16:21:23.022Z,986.43
2022-10-03T16:28:35.795Z,986.39
2022-10-03T16:35:43.030Z,986.32
2022-10-03T16:42:45.070Z,986.28
2022-10-03T16:49:38.704Z,986.28
2022-10-03T16:56:32.875Z,986.22
2022-10-03T17:03:34.708Z,986.25
2022-10-03T17:10:32.058Z,986.45
2022-10-03T17:17:34.741Z,986.43
2022-10-03T17:24:43.724Z,986.32
2022-10-03T17:32:04.638Z,986.32
2022-10-03T17:39:18.745Z,986.37
2022-10-03T17:46:25.099Z,986.16
2022-10-03T17:53:40.779Z,986.25
2022-10-03T18:00:47.413Z,986.21
2022-10-03T18:07:54.775Z,986.23
2022-10-03T18:15:00.152Z,986.14
2022-10-03T18:22:14.187Z,986.13
2022-10-03T18:29:17.160Z,986.1
2022-10-03T18:36:15.089Z,986.12
2022-10-03T18:43:11.437Z,985.99
2022-10-03T18:50:05.561Z,985.99
2022-10-03T18:57:03.118Z,985.97
2022-10-03T19:04:05.631Z,985.97
2022-10-03T19:11:11.080Z,985.97
2022-10-03T19:18:29.237Z,985.95
2022-10-03T19:25:35.833Z,985.89
2022-10-03T19:32:39.746Z,985.89
2022-10-03T19:39:27.331Z,985.86
2022-10-03T19:46:26.806Z,986.02
2022-10-03T19:53:19.795Z,985.87
2022-10-03T20:00:25.047Z,985.9
2022-10-03T20:07:27.179Z,985.8
2022-10-03T20:14:28.877Z,985.79
2022-10-03T20:21:25.449Z,985.76
2022-10-03T20:28:21.445Z,985.77
2022-10-03T20:35:36.800Z,985.74
2022-10-03T20:42:53.680Z,985.79
2022-10-03T20:49:47.173Z,985.81
2022-10-03T20:57:08.226Z,985.83
2022-10-03T21:04:10.870Z,985.92
2022-10-03T21:11:20.689Z,985.86
2022-10-03T21:18:28.477Z,985.79
2022-10-03T21:25:29.440Z,985.79
2022-10-03T21:32:34.860Z,985.64
2022-10-03T21:39:28.186Z,985.6
2022-10-03T21:46:31.754Z,985.67
2022-10-03T21:53:40.240Z,985.64
2022-10-03T22:00:43.289Z,985.58
2022-10-03T22:07:55.822Z,985.55
2022-10-03T22:14:43.293Z,985.47
2022-10-03T22:21:47.178Z,985.38
2022-10-03T22:29:13.172Z,985.3
2022-10-03T22:36:20.085Z,985.25
2022-10-03T22:43:14.129Z,985.33
2022-10-03T22:50:11.262Z,985.2
2022-10-03T22:56:58.109Z,985.08
2022-10-03T23:03:52.310Z,984.96
2022-10-03T23:10:42.865Z,984.98
2022-10-03T23:17:47.786Z,984.99
2022-10-03T23:24:52.561Z,984.94
2022-10-03T23:31:46.969Z,984.9
2022-10-03T23:38:28.183Z,984.84
2022-10-03T23:45:30.934Z,984.79
2022-10-03T23:52:19.910Z,984.72
2022-10-03T23:59:08.505Z,984.65
